Time;durP1;ratioP1;P1;durP2;ratioP2;P2;SDS_P1;SDS_P2;PMS_P1;PMS_P2;Temp;Humidity;BMP_temperature;BMP_pressure;BME280_temperature;BME280_humidity;BME280_pressure;Samples;Min_cycle;Max_cycle;Signal;HPM_P1;HPM_P2
2022/01/06 00:01:19;;;;;;;6.70;1.60;;;;;;;5.66;51.46;99056.06;4427642;32;33946;-81
2022/01/06 00:03:49;;;;;;;4.57;1.77;;;;;;;4.83;53.08;99050.03;4439008;32;33300;-85
2022/01/06 00:06:17;;;;;;;3.78;1.30;;;;;;;4.97;54.23;99051.06;4427471;32;33948;-84
2022/01/06 00:08:47;;;;;;;4.65;1.50;;;;;;;5.12;53.12;99048.31;4427649;32;33833;-84
2022/01/06 00:11:15;;;;;;;4.43;1.70;;;;;;;4.68;53.86;99056.50;4427516;32;33751;-84
2022/01/06 00:13:52;;;;;;;5.32;1.35;;;;;;;5.01;52.92;99052.38;4426983;32;33162;-84
2022/01/06 00:24:27;;;;;;;3.03;1.48;;;;;;;4.83;53.80;99043.75;4426059;32;33339;-84
2022/01/06 00:26:56;;;;;;;4.28;1.60;;;;;;;4.39;54.33;99044.59;4426238;32;34496;-84
2022/01/06 00:29:27;;;;;;;4.93;1.67;;;;;;;4.31;54.49;99047.38;4427188;32;33762;-84
2022/01/06 00:31:54;;;;;;;4.70;1.67;;;;;;;5.00;53.75;99052.56;4426898;32;33899;-84
2022/01/06 00:34:23;;;;;;;7.05;1.65;;;;;;;4.73;54.26;99054.91;4427159;32;33093;-84
2022/01/06 00:36:56;;;;;;;7.80;2.10;;;;;;;4.46;54.74;99042.81;4428343;32;34070;-84
2022/01/06 00:39:32;;;;;;;6.43;1.60;;;;;;;4.93;53.70;99028.84;4440165;32;34627;-84
2022/01/06 00:42:07;;;;;;;4.53;1.50;;;;;;;4.66;54.32;99021.34;4415274;32;33304;-84
2022/01/06 00:44:38;;;;;;;7.20;1.92;;;;;;;4.54;54.80;99025.59;4414944;32;31340;-84
2022/01/06 00:47:09;;;;;;;5.37;1.90;;;;;;;4.90;54.11;99022.94;4424543;32;32966;-84
2022/01/06 00:49:40;;;;;;;4.03;1.48;;;;;;;5.12;53.54;99004.81;4424713;32;34461;-84
2022/01/06 00:52:10;;;;;;;5.87;1.70;;;;;;;5.29;53.11;98995.34;4424763;32;34589;-84
2022/01/06 00:54:38;;;;;;;5.78;1.87;;;;;;;5.10;53.71;98985.97;4425442;32;33322;-84
2022/01/06 00:57:05;;;;;;;3.00;1.35;;;;;;;4.52;54.85;98987.72;4426636;32;32681;-84
2022/01/06 00:59:41;;;;;;;5.43;1.50;;;;;;;4.24;55.68;99001.09;4425454;32;34409;-84
2022/01/06 01:02:11;;;;;;;3.55;1.67;;;;;;;4.76;54.39;99000.16;4425713;32;34466;-84
2022/01/06 01:04:41;;;;;;;4.78;1.60;;;;;;;4.57;54.94;98984.41;4426652;32;31463;-84
2022/01/06 01:07:15;;;;;;;3.67;1.35;;;;;;;5.02;54.18;98966.19;4424951;32;34127;-84
2022/01/06 01:09:46;;;;;;;5.25;1.52;;;;;;;4.87;54.21;98971.66;4437829;32;34195;-84
2022/01/06 01:12:14;;;;;;;3.92;1.62;;;;;;;4.68;54.51;98983.94;4413618;32;32662;-84
2022/01/06 01:15:00;;;;;;;4.68;1.73;;;;;;;5.27;53.48;98983.81;4425461;32;34418;-84
2022/01/06 01:17:27;;;;;;;6.47;1.85;;;;;;;5.58;52.47;98978.94;4424103;32;33988;-84
2022/01/06 01:19:57;;;;;;;4.05;1.40;;;;;;;5.01;53.54;98997.13;4423992;32;34620;-84
2022/01/06 01:22:25;;;;;;;5.60;1.83;;;;;;;4.92;54.15;99013.56;4423801;32;34604;-84
2022/01/06 01:24:56;;;;;;;5.15;1.90;;;;;;;5.06;54.15;98992.81;4423778;32;33549;-84
2022/01/06 01:27:23;;;;;;;5.72;1.60;;;;;;;4.95;54.03;98988.72;4424053;32;33666;-84
2022/01/06 01:30:01;;;;;;;5.60;1.80;;;;;;;5.35;53.61;99010.06;4424180;32;34980;-84
2022/01/06 01:32:33;;;;;;;5.55;1.70;;;;;;;5.04;53.93;99013.06;4423221;32;33951;-84
2022/01/06 01:35:04;;;;;;;5.68;2.10;;;;;;;5.05;53.90;99031.06;4423994;32;33867;-84
2022/01/06 01:37:32;;;;;;;6.20;1.67;;;;;;;5.15;53.82;99026.19;4423309;32;33705;-84
2022/01/06 01:40:01;;;;;;;5.50;1.35;;;;;;;5.20;53.52;99026.47;4425779;32;35203;-84
2022/01/06 01:42:33;;;;;;;4.12;1.48;;;;;;;5.14;53.91;99025.34;4438547;32;34638;-84
2022/01/06 01:45:02;;;;;;;5.10;1.73;;;;;;;5.56;53.34;99013.66;4426241;32;33296;-84
2022/01/06 01:47:31;;;;;;;4.55;1.73;;;;;;;5.23;53.50;99012.44;4438538;32;34401;-84
2022/01/06 01:50:16;;;;;;;5.10;1.80;;;;;;;5.13;53.98;99012.78;4425862;32;34262;-84
2022/01/06 01:52:48;;;;;;;5.37;1.95;;;;;;;4.98;54.38;98998.34;4425107;32;33251;-84
2022/01/06 01:55:28;;;;;;;8.55;1.87;;;;;;;5.23;54.39;98990.69;4425314;32;33063;-84
2022/01/06 01:57:57;;;;;;;6.28;1.70;;;;;;;5.24;54.06;98993.22;4426293;32;33691;-84
2022/01/06 02:00:28;;;;;;;4.25;1.70;;;;;;;5.49;53.67;99004.59;4425496;32;35172;-84
2022/01/06 02:02:56;;;;;;;5.93;2.17;;;;;;;5.42;53.94;99006.38;4425928;32;34573;-84
2022/01/06 02:05:29;;;;;;;7.05;2.17;;;;;;;5.64;53.67;98990.91;4425611;32;32268;-84
2022/01/06 02:07:58;;;;;;;4.57;2.00;;;;;;;5.21;54.23;99003.63;4426771;32;33369;-84
2022/01/06 02:10:27;;;;;;;5.68;2.35;;;;;;;5.37;53.97;99016.16;4438715;32;34846;-84
2022/01/06 02:12:57;;;;;;;5.12;2.05;;;;;;;5.21;54.21;99025.37;4425326;32;33270;-84
2022/01/06 02:15:24;;;;;;;3.58;1.50;;;;;;;5.23;54.28;99026.88;4425908;32;31767;-84
2022/01/06 02:17:52;;;;;;;3.58;1.50;;;;;;;5.37;54.20;99024.31;4438054;32;33466;-84
2022/01/06 02:20:24;;;;;;;5.90;1.62;;;;;;;4.75;55.19;99041.97;4425974;32;34056;-84
2022/01/06 02:22:57;;;;;;;4.68;1.70;;;;;;;4.78;55.09;99030.72;4425530;32;33929;-84
2022/01/06 02:25:28;;;;;;;3.83;1.62;;;;;;;4.78;55.20;99025.28;4438566;32;34134;-84
2022/01/06 02:28:03;;;;;;;5.90;1.80;;;;;;;5.12;54.44;99010.25;4425485;32;34448;-84
2022/01/06 02:30:36;;;;;;;5.15;1.73;;;;;;;4.85;55.03;98998.19;4425844;32;33049;-84
2022/01/06 02:33:08;;;;;;;4.12;1.60;;;;;;;5.04;54.95;98977.72;4425931;32;34160;-84
2022/01/06 02:35:38;;;;;;;3.67;1.62;;;;;;;5.18;54.53;98969.53;4425469;32;31889;-84
2022/01/06 02:38:05;;;;;;;5.07;1.80;;;;;;;5.38;54.46;98979.75;4425854;32;34376;-84
2022/01/06 02:40:36;;;;;;;2.72;1.30;;;;;;;5.46;54.33;98975.03;4425091;32;33309;-84
2022/01/06 02:43:06;;;;;;;4.78;2.10;;;;;;;5.04;54.43;98975.00;4413120;32;34235;-84
2022/01/06 02:45:36;;;;;;;3.80;1.95;;;;;;;5.08;54.47;98979.03;4437257;32;33961;-84
2022/01/06 02:48:08;;;;;;;4.12;1.58;;;;;;;5.07;54.63;98980.06;4424791;32;32278;-84
2022/01/06 02:50:41;;;;;;;7.50;1.80;;;;;;;4.93;55.05;98979.91;4412817;32;33282;-84
2022/01/06 02:53:12;;;;;;;4.82;1.52;;;;;;;4.83;55.33;99000.25;4425390;32;33914;-84
2022/01/06 02:55:49;;;;;;;3.20;1.45;;;;;;;4.92;55.23;99024.44;4425162;32;31656;-84
2022/01/06 02:58:42;;;;;;;5.22;2.00;;;;;;;4.96;54.61;99038.50;4427924;32;33915;-84
2022/01/06 03:01:09;;;;;;;5.55;1.73;;;;;;;4.73;55.54;99035.03;4425715;32;34462;-84
2022/01/06 03:03:38;;;;;;;3.78;1.50;;;;;;;4.58;55.95;99045.88;4425846;32;33722;-84
2022/01/06 03:06:05;;;;;;;4.95;1.65;;;;;;;4.57;56.84;99049.63;4412469;32;33432;-84
2022/01/06 03:08:37;;;;;;;4.93;1.85;;;;;;;5.00;55.13;99071.59;4425214;32;32220;-84
2022/01/06 03:11:07;;;;;;;5.30;1.70;;;;;;;4.89;55.72;99062.87;4425537;32;33704;-84
2022/01/06 03:13:34;;;;;;;4.43;1.73;;;;;;;4.43;56.81;99058.66;4425274;32;32401;-84
2022/01/06 03:16:03;;;;;;;8.40;2.03;;;;;;;4.66;56.28;99064.81;4425594;32;34254;-84
2022/01/06 03:18:33;;;;;;;6.32;2.03;;;;;;;5.11;55.48;99065.69;4425240;32;32390;-84
2022/01/06 03:21:05;;;;;;;4.68;1.85;;;;;;;4.80;55.45;99061.28;4425493;32;34297;-84
2022/01/06 03:23:33;;;;;;;6.18;2.10;;;;;;;5.06;55.55;99076.28;4425830;32;34217;-84
2022/01/06 03:26:03;;;;;;;4.03;1.77;;;;;;;4.84;55.86;99059.88;4425481;32;33916;-84
2022/01/06 03:28:51;;;;;;;4.90;1.80;;;;;;;4.80;55.52;99061.28;4427380;32;33271;-84
2022/01/06 03:31:19;;;;;;;5.57;2.25;;;;;;;4.78;56.00;99063.34;4425679;32;34496;-84
2022/01/06 03:33:51;;;;;;;5.82;1.50;;;;;;;4.40;56.85;99064.44;4425572;32;34221;-84
2022/01/06 03:36:21;;;;;;;4.70;1.45;;;;;;;4.53;56.61;99068.22;4438227;32;33034;-84
2022/01/06 03:38:48;;;;;;;2.53;1.20;;;;;;;4.85;55.82;99060.72;4424832;32;34247;-84
2022/01/06 03:41:16;;;;;;;7.15;2.12;;;;;;;4.44;56.11;99066.59;4425015;32;35326;-84
2022/01/06 03:43:48;;;;;;;5.45;1.42;;;;;;;4.48;57.21;99072.53;4425137;32;33802;-84
2022/01/06 03:46:16;;;;;;;6.68;1.70;;;;;;;4.68;56.03;99078.22;4426483;32;32171;-84
2022/01/06 03:48:46;;;;;;;7.93;1.70;;;;;;;4.38;56.69;99082.81;4428156;32;34130;-84
2022/01/06 03:51:13;;;;;;;6.95;1.70;;;;;;;4.46;56.32;99093.59;4427906;32;34262;-85
2022/01/06 03:53:45;;;;;;;6.03;1.70;;;;;;;4.50;56.75;99086.75;4428251;32;34871;-84
2022/01/06 03:56:15;;;;;;;3.90;1.60;;;;;;;4.37;57.01;99094.69;4427785;32;33303;-84
2022/01/06 03:58:44;;;;;;;4.68;1.62;;;;;;;4.66;56.46;99099.31;4427477;32;33825;-84
2022/01/06 04:01:12;;;;;;;4.60;1.55;;;;;;;4.29;57.10;99101.87;4426534;32;35254;-84
2022/01/06 04:03:41;;;;;;;4.32;1.65;;;;;;;4.15;57.18;99088.25;4428132;32;34876;-84
2022/01/06 04:06:10;;;;;;;4.47;1.77;;;;;;;4.22;57.95;99084.63;4427615;32;33567;-84
2022/01/06 04:08:37;;;;;;;4.10;1.65;;;;;;;4.35;57.41;99083.16;4441274;32;33623;-84
2022/01/06 04:11:07;;;;;;;6.55;1.75;;;;;;;4.01;58.33;99094.47;4428348;32;35861;-84
2022/01/06 04:13:36;;;;;;;5.03;1.58;;;;;;;4.73;56.47;99090.22;4427992;32;34020;-84
2022/01/06 04:16:08;;;;;;;5.90;1.60;;;;;;;5.03;55.46;99093.81;4428870;32;33203;-84
2022/01/06 04:18:36;;;;;;;5.03;1.40;;;;;;;4.46;56.57;99090.88;4429133;32;33958;-84
2022/01/06 04:21:04;;;;;;;3.25;1.50;;;;;;;4.67;56.40;99088.25;4442457;32;33963;-84
2022/01/06 04:23:37;;;;;;;5.62;1.77;;;;;;;4.91;55.74;99090.72;4428852;32;33915;-84
2022/01/06 04:26:07;;;;;;;4.30;1.70;;;;;;;4.63;56.45;99086.94;4426987;32;33590;-85
2022/01/06 04:28:36;;;;;;;5.72;1.70;;;;;;;4.72;56.04;99091.25;4427144;32;32356;-84
2022/01/06 04:31:04;;;;;;;7.05;2.40;;;;;;;4.93;55.24;99093.25;4428022;32;34498;-84
2022/01/06 04:33:33;;;;;;;4.12;1.70;;;;;;;5.42;54.24;99088.03;4427273;32;33759;-84
2022/01/06 04:36:03;;;;;;;4.05;1.60;;;;;;;5.46;54.15;99102.94;4426798;32;31635;-84
2022/01/06 04:38:33;;;;;;;5.53;1.83;;;;;;;5.30;54.05;99100.41;4440251;32;34377;-84
2022/01/06 04:41:06;;;;;;;4.85;1.60;;;;;;;5.48;53.54;99109.03;4439891;32;35164;-84
2022/01/06 04:43:34;;;;;;;3.33;1.25;;;;;;;5.43;53.82;99111.47;4440133;32;34115;-84
2022/01/06 04:46:02;;;;;;;4.37;1.12;;;;;;;5.25;53.72;99113.75;4426819;32;33341;-84
2022/01/06 04:48:29;;;;;;;4.35;1.27;;;;;;;5.50;53.09;99115.13;4427757;32;33451;-84
2022/01/06 04:50:57;;;;;;;4.97;1.55;;;;;;;5.70;52.95;99130.88;4426656;32;34301;-84
2022/01/06 04:53:25;;;;;;;3.58;1.15;;;;;;;5.83;52.49;99136.47;4426724;32;33959;-81
2022/01/06 04:55:58;;;;;;;3.80;1.73;;;;;;;5.50;52.69;99142.34;4426678;32;34221;-83
2022/01/06 04:58:26;;;;;;;4.93;1.52;;;;;;;5.57;53.02;99145.16;4439401;32;33836;-83
2022/01/06 05:00:53;;;;;;;3.65;1.58;;;;;;;5.59;52.84;99156.69;4413440;32;33853;-82
2022/01/06 05:03:22;;;;;;;4.93;1.75;;;;;;;5.66;52.92;99154.91;4427185;32;32219;-83
2022/01/06 05:05:50;;;;;;;8.40;2.33;;;;;;;5.69;52.42;99154.53;4427255;32;32481;-77
2022/01/06 05:08:18;;;;;;;7.70;2.22;;;;;;;6.17;64.43;99163.03;4439658;32;32358;-86
2022/01/06 05:10:51;;;;;;;3.70;1.27;;;;;;;6.45;53.83;99169.41;4428095;32;35321;-88
2022/01/06 05:13:18;;;;;;;3.55;1.17;;;;;;;6.23;51.76;99162.25;4415016;32;34156;-89
2022/01/06 05:15:46;;;;;;;4.43;1.35;;;;;;;6.03;51.42;99164.78;4428847;32;33500;-90
2022/01/06 05:18:13;;;;;;;3.87;1.87;;;;;;;6.04;51.80;99171.91;4428795;32;33527;-89
2022/01/06 05:20:42;;;;;;;2.97;1.35;;;;;;;6.16;52.17;99173.09;4428517;32;32764;-89
2022/01/06 05:23:11;;;;;;;5.15;1.45;;;;;;;6.18;51.94;99165.56;4429159;32;33499;-91
2022/01/06 05:25:39;;;;;;;15.10;4.15;;;;;;;6.15;51.82;99184.19;4416514;32;32486;-90
2022/01/06 05:28:06;;;;;;;7.72;2.35;;;;;;;5.89;52.67;99187.44;4428991;32;33556;-90
2022/01/06 05:30:35;;;;;;;8.75;2.92;;;;;;;6.13;52.24;99181.66;4428189;32;33532;-88
2022/01/06 05:33:03;;;;;;;6.30;2.12;;;;;;;6.54;51.42;99179.09;4429189;32;34801;-89
2022/01/06 05:35:30;;;;;;;7.82;2.70;;;;;;;6.13;51.97;99178.91;4428919;32;33140;-89
2022/01/06 05:38:01;;;;;;;7.90;2.50;;;;;;;6.16;52.28;99183.13;4429067;32;34532;-88
2022/01/06 05:40:28;;;;;;;8.45;3.12;;;;;;;6.32;51.70;99187.50;4428189;32;32802;-89
2022/01/06 05:42:57;;;;;;;5.12;2.30;;;;;;;6.53;50.80;99184.75;4428493;32;34256;-90
2022/01/06 05:45:28;;;;;;;3.47;1.83;;;;;;;6.17;51.43;99177.50;4428934;32;33546;-89
2022/01/06 05:47:56;;;;;;;5.65;1.77;;;;;;;6.11;51.90;99180.16;4428459;32;32632;-88
2022/01/06 05:50:24;;;;;;;8.13;2.47;;;;;;;6.31;51.53;99174.91;4428619;32;33670;-89
2022/01/06 05:52:54;;;;;;;10.27;3.83;;;;;;;6.45;51.56;99187.63;4428839;32;34096;-91
2022/01/06 05:55:22;;;;;;;10.52;3.42;;;;;;;6.42;51.66;99194.31;4441604;32;33300;-88
2022/01/06 05:57:52;;;;;;;12.88;3.60;;;;;;;6.30;51.81;99186.84;4428854;32;33387;-90
2022/01/06 06:00:19;;;;;;;20.62;7.03;;;;;;;6.15;52.41;99185.03;4428555;32;34071;-90
2022/01/06 06:02:49;;;;;;;7.55;2.58;;;;;;;6.38;51.97;99181.28;4428579;32;32361;-89
2022/01/06 06:05:17;;;;;;;8.82;3.25;;;;;;;6.28;52.58;99196.06;4423582;32;33257;-89
2022/01/06 06:07:46;;;;;;;7.03;2.45;;;;;;;6.49;52.12;99189.78;4408612;32;32150;-88
2022/01/06 06:10:14;;;;;;;14.95;5.00;;;;;;;6.36;52.34;99189.66;4411656;32;35333;-90
2022/01/06 06:12:42;;;;;;;7.90;2.92;;;;;;;6.17;52.31;99193.84;4416937;32;33828;-89
2022/01/06 06:15:13;;;;;;;8.32;3.40;;;;;;;6.19;52.43;99189.06;4426834;32;32462;-89
2022/01/06 06:17:41;;;;;;;6.93;3.25;;;;;;;5.79;53.47;99192.34;4426979;32;33380;-89
2022/01/06 06:20:09;;;;;;;8.43;2.75;;;;;;;5.98;53.16;99197.19;4440585;32;32676;-90
2022/01/06 06:22:37;;;;;;;14.77;4.28;;;;;;;6.15;52.96;99198.66;4428722;32;34661;-88
2022/01/06 06:25:05;;;;;;;12.40;3.03;;;;;;;6.24;53.06;99202.09;4428070;32;33944;-88
2022/01/06 06:27:33;;;;;;;7.07;2.12;;;;;;;5.47;55.58;99199.88;4428471;32;34453;-88
2022/01/06 06:30:00;;;;;;;7.40;1.95;;;;;;;5.36;56.52;99205.78;4428722;32;34350;-89
2022/01/06 06:32:33;;;;;;;6.22;2.22;;;;;;;5.53;55.79;99207.28;4428857;32;34645;-89
2022/01/06 06:35:02;;;;;;;6.20;2.25;;;;;;;5.67;55.37;99218.34;4428998;32;32409;-89
2022/01/06 06:37:30;;;;;;;5.28;1.80;;;;;;;5.98;54.64;99220.84;4428801;32;33736;-89
2022/01/06 06:40:00;;;;;;;8.43;2.60;;;;;;;5.66;55.25;99233.00;4428522;32;33998;-88
2022/01/06 06:42:31;;;;;;;9.27;2.60;;;;;;;5.41;55.84;99236.00;4428581;32;33915;-89
2022/01/06 06:44:59;;;;;;;4.95;2.30;;;;;;;5.69;55.20;99232.63;4428840;32;33188;-89
2022/01/06 06:47:29;;;;;;;6.68;2.40;;;;;;;5.88;54.84;99237.47;4428425;32;34535;-88
2022/01/06 06:49:59;;;;;;;6.57;2.58;;;;;;;5.24;55.95;99243.47;4428363;32;32962;-89
2022/01/06 06:52:27;;;;;;;7.00;3.10;;;;;;;5.44;56.10;99242.94;4428476;32;33747;-88
2022/01/06 06:54:54;;;;;;;10.07;2.50;;;;;;;5.35;56.77;99252.22;4428891;32;33899;-87
2022/01/06 06:57:24;;;;;;;7.90;2.53;;;;;;;5.23;55.83;99241.78;4428215;32;33713;-88
2022/01/06 06:59:52;;;;;;;7.30;2.25;;;;;;;5.56;55.76;99258.62;4440991;32;35126;-88
2022/01/06 07:02:19;;;;;;;6.70;2.10;;;;;;;5.93;55.39;99259.56;4428441;32;34380;-87
2022/01/06 07:04:47;;;;;;;6.25;2.40;;;;;;;5.80;55.06;99271.09;4428649;32;33672;-88
2022/01/06 07:07:15;;;;;;;5.78;2.42;;;;;;;6.07;54.90;99277.75;4428447;32;33481;-88
2022/01/06 07:09:42;;;;;;;5.72;1.98;;;;;;;6.13;54.49;99278.88;4428230;32;32594;-89
2022/01/06 07:12:13;;;;;;;6.68;2.35;;;;;;;6.20;53.75;99283.38;4428788;32;33894;-88
2022/01/06 07:14:41;;;;;;;12.15;3.47;;;;;;;6.04;54.42;99280.84;4432485;32;32994;-89
2022/01/06 07:17:09;;;;;;;6.55;2.60;;;;;;;6.06;54.79;99280.66;4432940;32;33673;-88
2022/01/06 07:19:37;;;;;;;10.10;2.87;;;;;;;5.68;55.41;99294.38;4428209;32;32916;-88
2022/01/06 07:22:05;;;;;;;8.38;3.45;;;;;;;5.78;55.21;99294.13;4429708;32;32588;-88
2022/01/06 07:24:35;;;;;;;11.25;3.65;;;;;;;5.78;55.38;99291.38;4428592;32;31778;-88
2022/01/06 07:27:04;;;;;;;5.95;2.20;;;;;;;5.73;54.78;99307.44;4428222;32;32964;-88
2022/01/06 07:29:32;;;;;;;28.60;7.95;;;;;;;5.49;55.13;99316.72;4443318;32;35054;-88
2022/01/06 07:31:59;;;;;;;31.62;8.68;;;;;;;5.56;55.38;99315.78;4431210;32;34323;-89
2022/01/06 07:34:27;;;;;;;11.75;3.55;;;;;;;5.27;55.67;99315.72;4428612;32;33065;-87
2022/01/06 07:36:54;;;;;;;9.48;3.08;;;;;;;5.16;56.25;99316.19;4425729;32;33784;-88
2022/01/06 07:39:22;;;;;;;9.32;3.80;;;;;;;5.40;55.92;99321.38;4425634;32;33971;-88
2022/01/06 07:41:49;;;;;;;9.63;3.87;;;;;;;5.63;55.69;99313.16;4413648;32;33265;-89
2022/01/06 07:44:20;;;;;;;8.77;4.07;;;;;;;5.91;54.54;99316.09;4415138;32;32518;-89
2022/01/06 07:46:48;;;;;;;7.65;2.60;;;;;;;5.80;54.75;99332.91;4426790;32;33797;-89
2022/01/06 07:49:16;;;;;;;4.78;2.15;;;;;;;5.27;56.56;99341.06;4426775;32;34412;-89
2022/01/06 07:51:46;;;;;;;9.25;2.40;;;;;;;5.08;57.02;99340.75;4440609;32;33825;-88
2022/01/06 09:30:25;;;;;;;7.70;2.50;;;;;;;7.01;54.05;99449.59;4509860;31;91692;-77
2022/01/06 09:32:53;;;;;;;8.65;3.85;;;;;;;7.01;54.05;99449.59;4498956;31;33782;-77
2022/01/06 09:35:22;;;;;;;6.32;2.40;;;;;;;6.70;54.41;99456.12;4498489;31;34609;-77
2022/01/06 09:37:49;;;;;;;5.97;2.30;;;;;;;6.84;53.34;99446.25;4485588;31;33829;-76
2022/01/06 09:40:18;;;;;;;4.53;1.62;;;;;;;6.73;53.27;99458.47;4485734;31;32312;-76
2022/01/06 09:42:45;;;;;;;6.55;2.30;;;;;;;6.33;53.78;99450.81;4485224;31;32681;-77
2022/01/06 09:45:13;;;;;;;5.53;2.00;;;;;;;6.59;53.48;99454.72;4485662;31;33825;-77
2022/01/06 09:47:41;;;;;;;4.00;1.90;;;;;;;6.93;52.58;99459.59;4486053;31;35331;-77
2022/01/06 09:50:19;;;;;;;5.93;2.45;;;;;;;6.71;52.91;99465.16;4498636;31;34381;-76
2022/01/06 09:52:51;;;;;;;4.47;1.90;;;;;;;6.77;52.98;99473.44;4493649;31;32798;-76
2022/01/06 09:55:19;;;;;;;21.37;9.00;;;;;;;6.98;52.49;99471.81;4482609;32;33623;-76
2022/01/06 09:57:57;;;;;;;25.15;11.82;;;;;;;6.81;53.14;99472.03;4469716;32;34253;-77
2022/01/06 10:00:35;;;;;;;6.75;2.78;;;;;;;6.91;52.88;99458.94;4482643;32;33317;-77
2022/01/06 10:03:16;;;;;;;7.68;2.10;;;;;;;7.30;52.12;99471.31;4484154;31;33164;-76
2022/01/06 10:05:54;;;;;;;10.48;4.18;;;;;;;7.32;51.89;99469.25;4470451;32;33953;-76
2022/01/06 10:08:28;;;;;;;6.28;2.53;;;;;;;7.03;52.24;99477.53;4483125;32;34571;-76
2022/01/06 10:11:08;;;;;;;9.02;2.90;;;;;;;7.41;51.65;99480.88;4496719;31;34563;-76
2022/01/06 10:13:40;;;;;;;6.57;2.60;;;;;;;7.48;51.52;99471.72;4461970;31;31772;-76
2022/01/06 10:16:20;;;;;;;6.72;2.20;;;;;;;7.48;50.73;99482.66;4476718;32;32139;-77
2022/01/06 10:19:05;;;;;;;5.57;1.62;;;;;;;7.26;51.50;99486.41;4482399;32;32891;-76
2022/01/06 10:21:44;;;;;;;7.32;1.90;;;;;;;7.58;50.82;99475.00;4485343;31;33896;-77
2022/01/06 10:24:16;;;;;;;9.85;2.00;;;;;;;7.78;50.24;99482.53;4476641;32;32772;-76
2022/01/06 10:27:04;;;;;;;4.82;1.92;;;;;;;7.99;50.00;99484.38;4469707;32;32308;-77
2022/01/06 10:29:36;;;;;;;5.18;2.10;;;;;;;7.99;49.24;99490.69;4465773;32;32868;-76
2022/01/06 10:32:11;;;;;;;4.65;1.52;;;;;;;7.82;49.53;99489.25;4459583;32;32215;-77
2022/01/06 10:34:43;;;;;;;4.93;1.50;;;;;;;7.71;49.74;99495.28;4486135;31;33098;-77
2022/01/06 10:37:22;;;;;;;5.82;1.80;;;;;;;7.31;50.41;99499.47;4459272;31;32337;-77
2022/01/06 10:39:53;;;;;;;5.57;2.33;;;;;;;7.21;50.67;99494.31;4472225;32;34846;-76
2022/01/06 10:42:23;;;;;;;15.15;7.20;;;;;;;7.32;51.08;99492.97;4465393;32;34553;-77
2022/01/06 10:44:58;;;;;;;9.02;4.10;;;;;;;7.35;50.61;99498.03;4480877;32;31811;-77
2022/01/06 10:47:30;;;;;;;6.43;2.20;;;;;;;7.53;49.95;99510.22;4472199;31;33690;-77
2022/01/06 10:50:16;;;;;;;4.20;1.60;;;;;;;7.77;49.53;99513.63;4459224;32;32996;-76
2022/01/06 10:52:46;;;;;;;4.10;1.65;;;;;;;7.73;49.67;99506.84;4458954;32;33416;-77
2022/01/06 10:55:42;;;;;;;4.70;1.83;;;;;;;7.39;50.21;99513.00;4458738;31;31894;-77
2022/01/06 10:58:17;;;;;;;4.90;2.15;;;;;;;7.91;49.46;99505.31;4470397;32;33793;-77
2022/01/06 11:00:52;;;;;;;5.43;1.77;;;;;;;7.59;50.10;99506.72;4469449;31;33093;-76
2022/01/06 11:03:23;;;;;;;4.62;2.25;;;;;;;7.69;49.88;99509.12;4473099;31;33806;-77
2022/01/06 11:05:54;;;;;;;4.65;2.12;;;;;;;7.75;50.21;99502.03;4458766;32;32570;-76
2022/01/06 11:08:25;;;;;;;5.97;2.40;;;;;;;8.06;49.65;99510.72;4459039;32;33582;-77
2022/01/06 11:13:38;;;;;;;40.15;18.00;;;;;;;7.35;51.51;99515.28;4471571;31;32341;-76
2022/01/06 11:16:06;;;;;;;10.00;4.47;;;;;;;7.93;50.65;99521.53;4458854;32;31991;-76
2022/01/06 11:18:38;;;;;;;6.85;2.28;;;;;;;7.75;49.84;99524.75;4468058;31;33695;-76
2022/01/06 11:21:13;;;;;;;5.25;1.83;;;;;;;7.99;49.58;99528.94;4462552;31;33948;-77
2022/01/06 11:23:40;;;;;;;6.62;1.85;;;;;;;7.92;49.79;99536.22;4458698;32;32730;-77
2022/01/06 11:26:13;;;;;;;4.20;1.60;;;;;;;7.60;50.25;99532.16;4464490;31;32899;-77
2022/01/06 11:28:42;;;;;;;6.75;1.83;;;;;;;8.04;49.60;99533.81;4458875;32;33537;-76
2022/01/06 11:31:18;;;;;;;5.53;1.92;;;;;;;8.30;48.97;99528.59;4471458;32;34360;-76
2022/01/06 11:33:50;;;;;;;5.72;1.75;;;;;;;8.02;49.73;99525.81;4458916;32;32481;-77
2022/01/06 11:36:29;;;;;;;6.07;2.00;;;;;;;7.53;50.40;99526.59;4471694;32;33175;-77
2022/01/06 11:39:03;;;;;;;4.93;2.10;;;;;;;7.54;51.06;99527.47;4472100;32;33605;-76
2022/01/06 11:41:51;;;;;;;8.20;3.83;;;;;;;7.88;50.80;99532.19;4471014;32;34353;-76
2022/01/06 11:44:30;;;;;;;16.75;6.43;;;;;;;7.28;51.94;99528.00;4458247;32;32392;-77
2022/01/06 11:47:03;;;;;;;6.60;2.22;;;;;;;7.37;51.19;99536.91;4458913;32;31763;-75
2022/01/06 11:49:40;;;;;;;7.18;2.33;;;;;;;7.09;52.27;99545.00;4459206;32;33733;-78
2022/01/06 11:52:14;;;;;;;8.20;2.12;;;;;;;7.14;51.90;99537.09;4472540;32;34339;-74
2022/01/06 11:54:55;;;;;;;6.15;2.00;;;;;;;7.36;51.87;99540.69;4471993;32;33896;-75
2022/01/06 11:57:37;;;;;;;9.63;3.10;;;;;;;7.49;51.36;99535.37;4472016;32;33269;-75
2022/01/06 12:00:19;;;;;;;4.12;1.83;;;;;;;7.59;50.65;99531.28;4459416;32;34539;-76
2022/01/06 12:03:02;;;;;;;5.18;1.95;;;;;;;7.48;50.66;99531.81;4471722;32;32959;-76
2022/01/06 12:06:02;;;;;;;6.20;2.00;;;;;;;7.93;49.94;99527.84;4458955;32;33393;-76
2022/01/06 12:08:40;;;;;;;5.65;1.90;;;;;;;8.14;49.19;99528.87;4470872;32;33139;-75
2022/01/06 12:11:26;;;;;;;7.70;1.60;;;;;;;7.40;49.78;99529.19;4472019;32;34544;-75
2022/01/06 12:13:56;;;;;;;3.93;1.47;;;;;;;7.01;50.72;99532.28;4472083;32;34465;-75
2022/01/06 12:16:41;;;;;;;4.37;1.75;;;;;;;7.39;50.55;99535.69;4458813;32;32369;-75
2022/01/06 12:20:06;;;;;;;5.93;1.60;;;;;;;7.29;50.09;99540.59;4471594;32;32766;-75
2022/01/06 12:22:33;;;;;;;4.53;1.83;;;;;;;7.80;49.48;99543.28;4441186;32;32255;-76
2022/01/06 12:25:05;;;;;;;5.72;1.67;;;;;;;7.92;49.15;99548.00;4458850;32;33687;-75
2022/01/06 12:27:43;;;;;;;6.47;1.83;;;;;;;7.62;49.80;99545.59;4456176;31;33973;-77
2022/01/06 12:30:12;;;;;;;8.00;2.33;;;;;;;7.18;50.78;99550.13;4471033;32;34047;-77
2022/01/06 12:32:39;;;;;;;4.78;1.67;;;;;;;7.38;50.38;99555.84;4458662;32;33568;-76
2022/01/06 12:35:07;;;;;;;5.40;1.87;;;;;;;7.78;49.49;99556.28;4471342;32;34453;-76
2022/01/06 12:37:35;;;;;;;4.62;1.58;;;;;;;7.49;50.09;99558.06;4458311;31;33639;-77
2022/01/06 12:40:02;;;;;;;5.53;1.77;;;;;;;7.65;49.75;99567.06;4458299;32;31818;-76
2022/01/06 12:42:30;;;;;;;6.75;2.00;;;;;;;7.91;48.95;99564.59;4458625;32;34294;-76
2022/01/06 12:45:05;;;;;;;4.37;2.50;;;;;;;7.55;49.37;99565.50;4452431;32;34635;-76
2022/01/06 12:47:33;;;;;;;5.37;1.70;;;;;;;7.79;49.13;99575.22;4466643;31;32348;-77
2022/01/06 12:50:01;;;;;;;13.75;2.80;;;;;;;7.09;50.54;99580.47;4470560;32;31615;-76
2022/01/06 12:52:28;;;;;;;12.90;5.78;;;;;;;7.26;50.69;99587.38;4470957;32;34805;-76
2022/01/06 12:54:55;;;;;;;8.07;3.12;;;;;;;7.38;50.24;99591.31;4454652;31;33863;-76
2022/01/06 12:57:23;;;;;;;7.22;2.30;;;;;;;7.81;49.33;99588.66;4474363;32;32271;-76
2022/01/06 12:59:55;;;;;;;5.03;2.10;;;;;;;7.48;50.16;99588.28;4470666;31;33147;-76
2022/01/06 13:02:22;;;;;;;4.97;2.12;;;;;;;7.46;49.85;99585.75;4485236;31;33703;-76
2022/01/06 13:04:51;;;;;;;6.03;2.37;;;;;;;7.02;51.05;99596.75;4457945;32;34089;-76
2022/01/06 13:07:18;;;;;;;7.57;3.30;;;;;;;7.64;49.79;99589.97;4458338;32;34011;-77
2022/01/06 13:09:48;;;;;;;24.87;11.75;;;;;;;7.97;49.01;99599.34;4457713;31;32824;-77
2022/01/06 13:12:21;;;;;;;10.23;4.97;;;;;;;7.62;49.77;99589.31;4445521;32;32365;-76
2022/01/06 13:14:52;;;;;;;7.00;3.37;;;;;;;8.23;48.83;99596.87;4457941;32;34363;-76
2022/01/06 13:17:26;;;;;;;6.72;2.90;;;;;;;8.49;48.14;99592.69;4462704;32;32423;-77
2022/01/06 13:20:00;;;;;;;5.28;2.20;;;;;;;8.55;48.42;99591.91;4470380;31;33150;-76
2022/01/06 13:22:47;;;;;;;7.22;2.15;;;;;;;8.44;48.61;99592.47;4471177;32;33837;-76
2022/01/06 13:25:29;;;;;;;7.00;2.45;;;;;;;8.56;48.57;99588.13;4484995;31;34437;-76
2022/01/06 13:28:05;;;;;;;7.80;2.40;;;;;;;8.52;49.41;99595.03;4470034;31;33077;-76
2022/01/06 13:30:43;;;;;;;5.45;2.05;;;;;;;8.44;49.09;99589.72;4490312;31;33947;-76
2022/01/06 13:33:13;;;;;;;6.00;1.90;;;;;;;7.88;49.42;99595.88;4481189;31;33918;-76
2022/01/06 13:35:52;;;;;;;5.10;1.98;;;;;;;8.09;49.25;99603.25;4463698;32;35277;-77
2022/01/06 13:38:23;;;;;;;6.90;2.00;;;;;;;8.17;50.08;99607.75;4470664;32;34042;-77
2022/01/06 13:40:52;;;;;;;7.60;1.95;;;;;;;8.05;50.03;99610.16;4472650;31;33176;-75
2022/01/06 13:43:22;;;;;;;4.28;2.03;;;;;;;8.03;49.77;99605.91;4475920;32;32054;-74
2022/01/06 13:45:56;;;;;;;12.88;3.87;;;;;;;8.03;50.14;99612.22;4470155;31;35238;-77
2022/01/06 13:51:11;;;;;;;13.02;2.70;;;;;;;8.22;48.63;99608.00;4469787;32;32687;-76